createdAt,value
2023-02-10T00:01:24.983Z,15.25
2023-02-10T00:03:52.274Z,16.00
2023-02-10T00:06:20.548Z,15.38
2023-02-10T00:08:50.255Z,15.48
2023-02-10T00:11:16.950Z,16.02
2023-02-10T00:13:44.578Z,16.38
2023-02-10T00:16:14.978Z,17.30
2023-02-10T00:18:42.018Z,14.70
2023-02-10T00:21:11.413Z,16.98
2023-02-10T00:23:38.138Z,15.38
2023-02-10T00:26:06.661Z,15.90
2023-02-10T00:28:35.023Z,16.58
2023-02-10T00:31:09.327Z,16.45
2023-02-10T00:33:36.166Z,16.05
2023-02-10T00:36:10.940Z,15.75
2023-02-10T00:38:38.159Z,18.00
2023-02-10T00:41:13.129Z,16.45
2023-02-10T00:43:45.478Z,15.80
2023-02-10T00:46:15.961Z,16.27
2023-02-10T00:48:44.422Z,14.68
2023-02-10T00:51:11.822Z,16.58
2023-02-10T00:53:38.736Z,16.15
2023-02-10T00:56:06.515Z,17.00
2023-02-10T00:58:35.235Z,17.58
2023-02-10T01:01:03.822Z,17.60
2023-02-10T01:03:30.687Z,17.98
2023-02-10T01:05:57.898Z,16.63
2023-02-10T01:08:24.555Z,17.02
2023-02-10T01:11:02.485Z,17.58
2023-02-10T01:13:29.318Z,17.15
2023-02-10T01:15:56.075Z,16.90
2023-02-10T01:18:23.181Z,15.35
2023-02-10T01:20:49.898Z,17.77
2023-02-10T01:23:17.450Z,16.30
2023-02-10T01:25:44.159Z,17.02
2023-02-10T01:28:11.406Z,17.25
2023-02-10T01:30:38.610Z,16.27
2023-02-10T01:33:05.565Z,17.85
2023-02-10T01:35:32.374Z,16.95
2023-02-10T01:37:59.129Z,15.88
2023-02-10T01:40:27.078Z,18.25
2023-02-10T01:42:53.973Z,16.48
2023-02-10T01:45:34.814Z,16.85
2023-02-10T01:48:02.708Z,18.08
2023-02-10T01:50:36.258Z,18.52
2023-02-10T01:53:03.269Z,16.77
2023-02-10T01:55:36.436Z,16.60
2023-02-10T01:58:07.316Z,16.35
2023-02-10T02:00:34.413Z,16.67
2023-02-10T02:03:02.486Z,15.63
2023-02-10T02:05:33.193Z,16.48
2023-02-10T02:08:09.506Z,16.10
2023-02-10T02:10:58.507Z,15.93
2023-02-10T02:13:53.765Z,16.00
2023-02-10T02:17:03.559Z,15.25
2023-02-10T02:20:19.221Z,15.43
2023-02-10T02:23:12.353Z,14.73
2023-02-10T02:25:42.042Z,15.65
2023-02-10T02:28:27.642Z,15.77
2023-02-10T02:31:05.513Z,15.52
2023-02-10T02:33:48.440Z,14.88
2023-02-10T02:36:24.176Z,15.55
2023-02-10T02:38:51.105Z,15.85
2023-02-10T02:41:25.368Z,16.77
2023-02-10T02:43:54.503Z,14.82
2023-02-10T02:46:47.466Z,14.02
2023-02-10T02:52:09.049Z,15.60
2023-02-10T02:54:47.529Z,14.55
2023-02-10T02:57:28.361Z,15.32
2023-02-10T03:00:15.556Z,14.60
2023-02-10T03:02:43.741Z,15.77
2023-02-10T03:05:10.492Z,17.58
2023-02-10T03:07:37.839Z,16.17
2023-02-10T03:10:05.548Z,16.77
2023-02-10T03:12:32.423Z,17.27
2023-02-10T03:14:59.074Z,17.27
2023-02-10T03:17:25.753Z,16.95
2023-02-10T03:19:52.423Z,16.45
2023-02-10T03:22:19.120Z,15.80
2023-02-10T03:24:45.818Z,17.95
2023-02-10T03:27:12.502Z,15.85
2023-02-10T03:29:39.310Z,15.85
2023-02-10T03:32:06.990Z,15.60
2023-02-10T03:34:33.696Z,16.63
2023-02-10T03:37:00.471Z,15.65
2023-02-10T03:39:27.432Z,16.80
2023-02-10T03:41:54.803Z,16.52
2023-02-10T03:44:21.558Z,15.70
2023-02-10T03:46:48.297Z,16.00
2023-02-10T03:49:14.941Z,18.17
2023-02-10T03:51:41.582Z,16.58
2023-02-10T03:54:08.244Z,17.55
2023-02-10T03:56:34.888Z,17.85
2023-02-10T03:59:05.722Z,17.55
2023-02-10T04:01:32.962Z,16.42
2023-02-10T04:03:59.934Z,17.60
2023-02-10T04:06:27.220Z,17.70
2023-02-10T04:08:53.866Z,16.92
2023-02-10T04:11:20.561Z,16.40
2023-02-10T04:13:47.266Z,16.33
2023-02-10T04:16:16.674Z,19.38
2023-02-10T04:18:43.894Z,18.63
2023-02-10T04:21:12.263Z,16.85
2023-02-10T04:23:38.939Z,16.48
2023-02-10T04:26:05.953Z,17.08
2023-02-10T04:28:33.309Z,16.67
2023-02-10T04:31:01.481Z,16.98
2023-02-10T04:33:28.688Z,16.27
2023-02-10T04:35:56.492Z,17.27
2023-02-10T04:38:24.221Z,17.52
2023-02-10T04:40:51.064Z,16.45
2023-02-10T04:43:17.792Z,18.73
2023-02-10T04:45:44.532Z,16.63
2023-02-10T04:48:11.357Z,17.45
2023-02-10T04:50:38.916Z,17.48
2023-02-10T04:53:05.874Z,16.73
2023-02-10T04:55:33.197Z,18.10
2023-02-10T04:58:00.571Z,18.80
2023-02-10T05:00:27.919Z,19.45
2023-02-10T05:02:55.250Z,19.08
2023-02-10T05:05:22.022Z,17.80
2023-02-10T05:07:48.684Z,18.73
2023-02-10T05:10:15.370Z,18.73
2023-02-10T05:12:42.055Z,17.95
2023-02-10T05:15:09.388Z,18.58
2023-02-10T05:17:36.365Z,19.25
2023-02-10T05:20:04.172Z,18.85
2023-02-10T05:22:30.947Z,20.42
2023-02-10T05:24:58.879Z,19.05
2023-02-10T05:27:26.263Z,19.25
2023-02-10T05:29:52.959Z,19.58
2023-02-10T05:32:19.845Z,20.80
2023-02-10T05:34:46.566Z,20.23
2023-02-10T05:37:13.290Z,20.45
2023-02-10T05:39:40.951Z,22.05
2023-02-10T05:42:08.815Z,21.77
2023-02-10T05:44:35.606Z,21.13
2023-02-10T05:47:02.277Z,22.92
2023-02-10T05:49:28.993Z,20.58
2023-02-10T05:51:55.704Z,21.67
2023-02-10T05:54:22.493Z,21.75
2023-02-10T05:56:51.030Z,23.95
2023-02-10T05:59:17.727Z,22.00
2023-02-10T06:01:45.177Z,21.55
2023-02-10T06:04:11.896Z,22.30
2023-02-10T06:06:38.923Z,22.83
2023-02-10T06:09:06.310Z,22.75
2023-02-10T06:11:33.529Z,23.15
2023-02-10T06:14:00.447Z,22.15
2023-02-10T06:16:27.293Z,23.08
2023-02-10T06:18:54.126Z,22.40
2023-02-10T06:21:21.655Z,24.60
2023-02-10T06:23:48.337Z,23.10
2023-02-10T06:26:14.995Z,24.27
2023-02-10T06:28:41.873Z,24.48
2023-02-10T06:31:08.812Z,25.50
2023-02-10T06:33:36.305Z,24.85
2023-02-10T06:36:06.267Z,24.38
2023-02-10T06:38:37.170Z,23.52
2023-02-10T06:41:04.735Z,27.63
2023-02-10T06:43:31.497Z,24.25
2023-02-10T06:45:58.320Z,24.50
2023-02-10T06:48:25.456Z,23.13
2023-02-10T06:50:52.211Z,22.67
2023-02-10T06:53:19.032Z,21.40
2023-02-10T06:55:45.899Z,22.20
2023-02-10T06:58:13.305Z,22.50
2023-02-10T07:00:40.087Z,23.77
2023-02-10T07:03:06.735Z,23.40
2023-02-10T07:05:33.675Z,25.23
2023-02-10T07:08:01.153Z,23.88
2023-02-10T07:10:27.806Z,24.05
2023-02-10T07:12:56.715Z,25.92
2023-02-10T07:15:23.893Z,24.20
2023-02-10T07:17:52.035Z,23.88
2023-02-10T07:20:22.757Z,24.23
2023-02-10T07:22:50.044Z,24.40
2023-02-10T07:25:16.884Z,23.50
2023-02-10T07:27:44.672Z,24.35
2023-02-10T07:30:12.696Z,25.27
2023-02-10T07:32:39.583Z,25.65
2023-02-10T07:35:06.449Z,24.02
2023-02-10T07:37:33.088Z,24.33
2023-02-10T07:39:59.750Z,24.02
2023-02-10T07:42:26.448Z,25.45
2023-02-10T07:45:18.628Z,24.77
2023-02-10T07:47:45.270Z,24.98
2023-02-10T07:50:11.953Z,25.33
2023-02-10T07:52:38.742Z,22.42
2023-02-10T07:55:05.764Z,25.27
2023-02-10T07:57:32.374Z,22.88
2023-02-10T07:59:59.081Z,23.50
2023-02-10T08:02:25.926Z,22.38
2023-02-10T08:04:55.150Z,25.35
2023-02-10T08:07:21.984Z,22.20
2023-02-10T08:09:48.680Z,22.13
2023-02-10T08:12:15.441Z,23.08
2023-02-10T08:14:42.104Z,24.17
2023-02-10T08:17:08.783Z,23.65
2023-02-10T08:19:37.303Z,24.92
2023-02-10T08:22:05.555Z,24.25
2023-02-10T08:24:32.596Z,23.67
2023-02-10T08:26:59.310Z,22.30
2023-02-10T08:29:26.019Z,22.95
2023-02-10T08:31:53.625Z,22.27
2023-02-10T08:34:21.568Z,24.17
2023-02-10T08:36:48.315Z,23.80
2023-02-10T08:39:16.169Z,25.08
2023-02-10T08:41:43.074Z,24.77
2023-02-10T08:44:13.649Z,24.10
2023-02-10T08:46:40.766Z,28.00
2023-02-10T08:49:07.661Z,25.15
2023-02-10T08:51:34.401Z,26.15
2023-02-10T08:54:01.835Z,27.70
2023-02-10T08:56:28.525Z,27.58
2023-02-10T08:58:55.779Z,28.48
2023-02-10T09:01:29.648Z,28.77
2023-02-10T09:03:57.231Z,26.20
2023-02-10T09:06:29.245Z,26.58
2023-02-10T09:08:55.922Z,26.10
2023-02-10T09:11:24.402Z,27.58
2023-02-10T09:13:54.492Z,26.40
2023-02-10T09:16:21.273Z,28.85
2023-02-10T09:18:48.012Z,28.30
2023-02-10T09:21:14.822Z,26.13
2023-02-10T09:23:41.495Z,26.55
2023-02-10T09:26:08.245Z,27.05
2023-02-10T09:28:35.373Z,27.55
2023-02-10T09:31:04.703Z,27.25
2023-02-10T09:33:31.453Z,26.35
2023-02-10T09:35:58.168Z,27.20
2023-02-10T09:38:25.756Z,26.40
2023-02-10T09:41:30.412Z,26.63
2023-02-10T09:44:17.762Z,25.58
2023-02-10T09:47:09.739Z,30.75
2023-02-10T09:50:32.514Z,28.15
2023-02-10T09:53:22.133Z,30.33
2023-02-10T09:55:58.291Z,27.38
2023-02-10T09:58:31.746Z,30.27
2023-02-10T10:01:25.163Z,27.80
2023-02-10T10:04:13.666Z,32.58
2023-02-10T10:06:56.829Z,30.13
2023-02-10T10:09:44.467Z,30.15
2023-02-10T10:12:19.110Z,30.50
2023-02-10T10:14:46.399Z,30.40
2023-02-10T10:17:22.348Z,29.58
2023-02-10T10:20:13.925Z,31.45
2023-02-10T10:23:16.568Z,31.23
2023-02-10T10:28:58.065Z,28.55
2023-02-10T10:31:30.125Z,30.50
2023-02-10T10:36:45.544Z,27.02
2023-02-10T10:39:42.919Z,30.92
2023-02-10T10:42:50.908Z,31.35
2023-02-10T10:45:25.269Z,31.05
2023-02-10T10:48:05.412Z,30.17
2023-02-10T10:50:32.990Z,30.63
2023-02-10T10:53:06.032Z,29.63
2023-02-10T10:55:42.446Z,29.90
2023-02-10T10:58:31.117Z,33.25
2023-02-10T11:01:00.409Z,33.10
2023-02-10T11:03:27.218Z,31.05
2023-02-10T11:06:04.559Z,29.98
2023-02-10T11:08:35.620Z,30.40
2023-02-10T11:11:05.052Z,32.17
2023-02-10T11:13:33.559Z,30.10
2023-02-10T11:16:13.259Z,28.73
2023-02-10T11:18:40.416Z,26.27
2023-02-10T11:21:11.902Z,27.95
2023-02-10T11:23:50.454Z,28.60
2023-02-10T11:26:27.989Z,26.73
2023-02-10T11:28:55.652Z,26.65
2023-02-10T11:31:22.379Z,24.77
2023-02-10T11:33:59.369Z,26.58
2023-02-10T11:36:36.252Z,27.00
2023-02-10T11:39:17.197Z,27.63
2023-02-10T11:41:44.807Z,27.95
2023-02-10T11:44:26.667Z,27.05
2023-02-10T11:47:07.034Z,25.10
2023-02-10T11:49:37.649Z,25.98
2023-02-10T11:52:05.300Z,26.58
2023-02-10T11:54:32.068Z,26.90
2023-02-10T11:57:37.636Z,25.75
2023-02-10T12:00:29.135Z,27.60
2023-02-10T12:03:21.200Z,28.00
2023-02-10T12:05:57.376Z,27.27
2023-02-10T12:08:33.447Z,28.83
2023-02-10T12:11:32.810Z,24.92
2023-02-10T12:14:20.835Z,24.50
2023-02-10T12:16:52.773Z,24.17
2023-02-10T12:19:40.992Z,24.75
2023-02-10T12:22:41.609Z,23.17
2023-02-10T12:25:29.596Z,24.88
2023-02-10T12:28:21.328Z,24.13
2023-02-10T12:31:16.998Z,22.35
2023-02-10T12:34:02.891Z,21.63
2023-02-10T12:36:58.997Z,21.67
2023-02-10T12:39:47.849Z,20.67
2023-02-10T12:42:32.946Z,20.27
2023-02-10T12:45:22.858Z,18.58
2023-02-10T12:48:15.354Z,19.13
2023-02-10T12:51:03.357Z,19.98
2023-02-10T12:53:35.831Z,17.67
2023-02-10T12:56:15.969Z,17.95
2023-02-10T12:58:48.598Z,16.83
2023-02-10T13:01:35.836Z,15.40
2023-02-10T13:04:35.230Z,15.25
2023-02-10T13:07:40.073Z,15.48
2023-02-10T13:10:10.043Z,15.43
2023-02-10T13:12:43.420Z,15.85
2023-02-10T13:15:18.616Z,13.52
2023-02-10T13:17:48.605Z,14.45
2023-02-10T13:20:49.814Z,15.10
2023-02-10T13:23:23.501Z,14.32
2023-02-10T13:25:54.935Z,15.07
2023-02-10T13:28:29.409Z,13.93
2023-02-10T13:31:21.838Z,14.88
2023-02-10T13:34:14.368Z,14.40
2023-02-10T13:36:41.818Z,14.38
2023-02-10T13:39:20.209Z,15.27
2023-02-10T13:41:51.834Z,14.43
2023-02-10T13:44:42.183Z,13.98
2023-02-10T13:47:12.065Z,14.50
2023-02-10T13:49:51.365Z,13.82
2023-02-10T13:52:25.375Z,13.35
2023-02-10T13:55:01.287Z,14.18
2023-02-10T13:57:34.669Z,15.15
2023-02-10T14:00:13.914Z,13.43
2023-02-10T14:02:41.079Z,13.85
2023-02-10T14:05:25.813Z,14.60
2023-02-10T14:07:52.684Z,15.07
2023-02-10T14:10:26.728Z,13.35
2023-02-10T14:13:04.470Z,14.43
2023-02-10T14:15:37.066Z,14.27
2023-02-10T14:18:26.996Z,13.52
2023-02-10T14:21:05.712Z,15.38
2023-02-10T14:23:35.542Z,13.52
2023-02-10T14:26:17.121Z,15.07
2023-02-10T14:28:49.610Z,13.82
2023-02-10T14:31:27.301Z,13.57
2023-02-10T14:33:59.936Z,15.30
2023-02-10T14:36:27.921Z,15.73
2023-02-10T14:38:57.024Z,14.05
2023-02-10T14:41:26.023Z,14.13
2023-02-10T14:43:54.296Z,14.45
2023-02-10T14:46:26.315Z,14.35
2023-02-10T14:51:25.812Z,15.05
2023-02-10T14:53:52.484Z,14.07
2023-02-10T14:56:26.300Z,14.93
2023-02-10T14:58:53.644Z,14.15
2023-02-10T15:01:27.683Z,14.45
2023-02-10T15:03:55.070Z,13.77
2023-02-10T15:06:24.385Z,14.45
2023-02-10T15:09:14.654Z,13.70
2023-02-10T15:12:10.198Z,13.68
2023-02-10T15:15:05.764Z,13.63
2023-02-10T15:17:44.986Z,14.50
2023-02-10T15:20:28.113Z,15.18
2023-02-10T15:22:58.855Z,14.73
2023-02-10T15:25:37.045Z,13.88
2023-02-10T15:28:09.869Z,16.27
2023-02-10T15:31:03.422Z,14.65
2023-02-10T15:33:32.186Z,14.50
2023-02-10T15:36:15.209Z,14.80
2023-02-10T15:38:57.158Z,14.02
2023-02-10T15:41:45.901Z,14.20
2023-02-10T15:44:18.557Z,15.77
2023-02-10T15:46:50.574Z,15.35
2023-02-10T15:51:54.682Z,14.15
2023-02-10T15:54:30.411Z,15.70
2023-02-10T15:57:02.454Z,15.15
2023-02-10T15:59:30.141Z,16.52
2023-02-10T16:02:02.056Z,15.02
2023-02-10T16:04:30.476Z,15.95
2023-02-10T16:06:59.086Z,15.18
2023-02-10T16:09:25.869Z,15.70
2023-02-10T16:11:53.341Z,15.45
2023-02-10T16:14:20.090Z,16.20
2023-02-10T16:16:53.309Z,14.98
2023-02-10T16:19:22.218Z,15.68
2023-02-10T16:21:50.118Z,15.95
2023-02-10T16:24:21.123Z,16.23
2023-02-10T16:26:48.362Z,16.60
2023-02-10T16:29:17.657Z,16.50
2023-02-10T16:31:44.413Z,16.27
2023-02-10T16:34:12.271Z,17.92
2023-02-10T16:36:40.169Z,15.77
2023-02-10T16:39:15.698Z,16.73
2023-02-10T16:41:42.491Z,16.25
2023-02-10T16:44:10.435Z,15.00
2023-02-10T16:46:38.589Z,17.55
2023-02-10T16:49:05.855Z,17.75
2023-02-10T16:51:32.755Z,16.88
2023-02-10T16:53:59.422Z,16.75
2023-02-10T16:56:26.193Z,17.85
2023-02-10T16:58:52.954Z,16.88
2023-02-10T17:01:19.681Z,16.23
2023-02-10T17:03:46.434Z,17.05
2023-02-10T17:06:19.393Z,16.45
2023-02-10T17:08:47.094Z,16.17
2023-02-10T17:11:14.370Z,17.05
2023-02-10T17:13:41.381Z,16.35
2023-02-10T17:16:20.553Z,16.65
2023-02-10T17:18:47.241Z,16.90
2023-02-10T17:21:13.877Z,16.05
2023-02-10T17:23:40.511Z,16.48
2023-02-10T17:26:10.150Z,17.00
2023-02-10T17:28:36.987Z,15.38
2023-02-10T17:31:04.076Z,15.35
2023-02-10T17:33:30.813Z,17.63
2023-02-10T17:35:57.497Z,16.80
2023-02-10T17:38:42.934Z,15.48
2023-02-10T17:41:09.957Z,15.50
2023-02-10T17:43:36.637Z,15.00
2023-02-10T17:46:03.872Z,13.95
2023-02-10T17:48:30.516Z,15.85
2023-02-10T17:51:04.719Z,15.27
2023-02-10T17:53:32.108Z,15.43
2023-02-10T17:55:58.811Z,16.40
2023-02-10T17:58:25.473Z,15.93
2023-02-10T18:00:52.255Z,16.60
2023-02-10T18:03:18.969Z,15.30
2023-02-10T18:05:48.554Z,15.98
2023-02-10T18:08:15.472Z,16.52
2023-02-10T18:10:42.127Z,15.80
2023-02-10T18:13:08.825Z,15.77
2023-02-10T18:15:35.590Z,15.52
2023-02-10T18:18:04.108Z,16.35
2023-02-10T18:20:31.070Z,15.30
2023-02-10T18:22:57.823Z,14.45
2023-02-10T18:25:25.142Z,14.65
2023-02-10T18:27:52.185Z,14.75
2023-02-10T18:30:18.959Z,16.45
2023-02-10T18:32:45.663Z,17.10
2023-02-10T18:35:13.706Z,14.00
2023-02-10T18:37:41.240Z,14.40
2023-02-10T18:40:10.131Z,14.40
2023-02-10T18:42:36.819Z,14.63
2023-02-10T18:45:03.728Z,15.60
2023-02-10T18:47:30.450Z,15.60
2023-02-10T18:49:57.184Z,15.50
2023-02-10T18:52:23.821Z,15.05
2023-02-10T18:54:50.532Z,17.58
2023-02-10T18:57:17.188Z,14.18
2023-02-10T18:59:43.913Z,17.75
2023-02-10T19:02:13.185Z,17.50
2023-02-10T19:04:39.920Z,15.40
2023-02-10T19:07:06.658Z,15.20
2023-02-10T19:09:39.166Z,16.38
2023-02-10T19:12:07.195Z,18.17
2023-02-10T19:14:34.512Z,18.15
2023-02-10T19:17:01.882Z,16.15
2023-02-10T19:19:28.657Z,18.85
2023-02-10T19:21:55.845Z,16.77
2023-02-10T19:24:22.916Z,16.63
2023-02-10T19:26:49.962Z,19.23
2023-02-10T19:29:16.652Z,19.30
2023-02-10T19:31:43.409Z,18.92
2023-02-10T19:34:12.836Z,19.58
2023-02-10T19:36:40.024Z,17.80
2023-02-10T19:39:06.741Z,18.38
2023-02-10T19:41:33.400Z,17.58
2023-02-10T19:44:00.471Z,18.20
2023-02-10T19:46:27.430Z,18.52
2023-02-10T19:48:54.610Z,19.35
2023-02-10T19:51:24.638Z,17.80
2023-02-10T19:53:53.288Z,18.35
2023-02-10T19:56:20.411Z,17.40
2023-02-10T19:58:47.175Z,18.27
2023-02-10T20:01:16.826Z,17.02
2023-02-10T20:03:45.551Z,15.50
2023-02-10T20:06:16.101Z,19.35
2023-02-10T20:08:43.078Z,16.90
2023-02-10T20:11:12.272Z,16.83
2023-02-10T20:13:39.397Z,17.75
2023-02-10T20:16:08.389Z,16.95
2023-02-10T20:18:36.802Z,17.13
2023-02-10T20:21:06.992Z,15.98
2023-02-10T20:23:36.611Z,16.10
2023-02-10T20:26:03.720Z,16.63
2023-02-10T20:28:30.862Z,17.52
2023-02-10T20:31:00.760Z,16.10
2023-02-10T20:33:28.171Z,16.77
2023-02-10T20:36:00.210Z,16.13
2023-02-10T20:38:28.440Z,16.30
2023-02-10T20:41:00.237Z,17.27
2023-02-10T20:43:27.810Z,16.55
2023-02-10T20:45:54.594Z,17.55
2023-02-10T20:48:21.409Z,17.63
2023-02-10T20:50:49.067Z,16.33
2023-02-10T20:53:16.003Z,17.83
2023-02-10T20:55:42.696Z,16.95
2023-02-10T20:58:09.612Z,17.73
2023-02-10T21:00:36.389Z,16.73
2023-02-10T21:03:03.714Z,18.48
2023-02-10T21:05:30.763Z,17.55
2023-02-10T21:07:57.438Z,19.00
2023-02-10T21:10:25.222Z,16.55
2023-02-10T21:12:52.159Z,19.50
2023-02-10T21:15:18.920Z,19.13
2023-02-10T21:17:45.694Z,18.63
2023-02-10T21:20:12.376Z,18.55
2023-02-10T21:22:39.056Z,16.80
2023-02-10T21:25:06.845Z,18.90
2023-02-10T21:27:38.182Z,18.05
2023-02-10T21:30:08.618Z,16.92
2023-02-10T21:32:35.590Z,18.15
2023-02-10T21:35:02.932Z,17.60
2023-02-10T21:37:29.902Z,17.75
2023-02-10T21:39:56.792Z,20.02
2023-02-10T21:42:23.431Z,17.98
2023-02-10T21:44:50.129Z,19.27
2023-02-10T21:47:17.703Z,18.80
2023-02-10T21:49:44.367Z,18.13
2023-02-10T21:52:12.877Z,18.65
2023-02-10T21:54:40.935Z,19.83
2023-02-10T21:57:09.073Z,19.50
2023-02-10T21:59:36.503Z,19.30
2023-02-10T22:02:05.213Z,20.65
2023-02-10T22:04:33.146Z,20.08
2023-02-10T22:07:00.055Z,18.95
2023-02-10T22:09:26.803Z,19.60
2023-02-10T22:11:53.483Z,18.95
2023-02-10T22:14:20.256Z,19.50
2023-02-10T22:16:47.076Z,19.63
2023-02-10T22:19:14.655Z,19.90
2023-02-10T22:21:41.509Z,20.60
2023-02-10T22:24:10.143Z,19.40
2023-02-10T22:26:37.386Z,19.27
2023-02-10T22:29:04.026Z,20.55
2023-02-10T22:31:32.735Z,20.80
2023-02-10T22:34:03.409Z,19.27
2023-02-10T22:36:30.414Z,21.23
2023-02-10T22:38:57.769Z,20.52
2023-02-10T22:41:27.065Z,21.13
2023-02-10T22:43:53.941Z,19.52
2023-02-10T22:46:21.224Z,20.25
2023-02-10T22:48:49.913Z,22.25
2023-02-10T22:51:20.504Z,21.27
2023-02-10T22:53:47.588Z,20.95
2023-02-10T22:56:19.990Z,19.35
2023-02-10T22:58:47.510Z,21.65
2023-02-10T23:01:23.874Z,21.13
2023-02-10T23:03:50.542Z,22.27
2023-02-10T23:06:17.203Z,21.30
2023-02-10T23:08:43.880Z,20.90
2023-02-10T23:11:10.585Z,20.70
2023-02-10T23:13:37.486Z,20.98
2023-02-10T23:16:04.655Z,21.50
2023-02-10T23:18:32.539Z,22.30
2023-02-10T23:20:59.376Z,22.27
2023-02-10T23:23:26.061Z,22.48
2023-02-10T23:25:53.893Z,22.00
2023-02-10T23:28:21.888Z,20.55
2023-02-10T23:30:48.621Z,22.58
2023-02-10T23:33:15.424Z,23.75
2023-02-10T23:35:48.199Z,23.58
2023-02-10T23:38:16.846Z,21.67
2023-02-10T23:40:43.800Z,23.02
2023-02-10T23:43:11.254Z,22.85
2023-02-10T23:45:38.348Z,23.98
2023-02-10T23:48:06.671Z,24.13
2023-02-10T23:50:34.287Z,25.35
2023-02-10T23:53:01.005Z,22.15
2023-02-10T23:55:27.784Z,22.85
2023-02-10T23:57:54.517Z,24.83
